createdAt,value
2019-02-26T00:01:18.762Z,88.97
2019-02-26T00:03:47.744Z,107.30
2019-02-26T00:06:18.563Z,102.60
2019-02-26T00:08:51.245Z,109.37
2019-02-26T00:11:19.435Z,109.03
2019-02-26T00:13:50.738Z,106.53
2019-02-26T00:16:20.557Z,104.47
2019-02-26T00:18:50.086Z,102.97
2019-02-26T00:21:20.452Z,102.73
2019-02-26T00:23:51.456Z,103.90
2019-02-26T00:26:22.439Z,107.90
2019-02-26T00:28:51.901Z,106.30
2019-02-26T00:31:22.241Z,104.63
2019-02-26T00:33:52.422Z,100.70
2019-02-26T00:36:21.882Z,97.03
2019-02-26T00:38:51.336Z,96.53
2019-02-26T00:41:24.447Z,98.00
2019-02-26T00:43:53.518Z,100.03
2019-02-26T00:46:24.233Z,97.83
2019-02-26T00:48:56.178Z,91.97
2019-02-26T00:51:26.916Z,98.20
2019-02-26T00:53:57.534Z,97.60
2019-02-26T00:56:29.373Z,98.03
2019-02-26T00:58:58.663Z,98.23
2019-02-26T01:01:28.108Z,98.93
2019-02-26T01:03:57.462Z,98.90
2019-02-26T01:06:28.916Z,104.67
2019-02-26T01:08:59.078Z,103.93
2019-02-26T01:11:30.267Z,103.10
2019-02-26T01:13:59.789Z,99.70
2019-02-26T01:16:29.136Z,97.70
2019-02-26T01:18:58.549Z,99.43
2019-02-26T01:21:29.092Z,101.17
2019-02-26T01:24:01.607Z,99.40
2019-02-26T01:26:30.369Z,101.87
2019-02-26T01:29:00.982Z,106.37
2019-02-26T01:31:32.106Z,99.63
2019-02-26T01:34:01.662Z,107.73
2019-02-26T01:36:31.097Z,97.80
2019-02-26T01:39:00.466Z,105.20
2019-02-26T01:41:29.973Z,106.53
2019-02-26T01:43:59.433Z,97.57
2019-02-26T01:46:30.013Z,105.27
2019-02-26T01:49:02.097Z,105.50
2019-02-26T01:51:31.730Z,102.27
2019-02-26T01:54:01.131Z,100.80
2019-02-26T01:56:30.543Z,99.07
2019-02-26T01:59:02.356Z,98.57
2019-02-26T02:01:31.099Z,102.60
2019-02-26T02:04:00.442Z,99.20
2019-02-26T02:07:04.232Z,104.87
2019-02-26T02:09:34.485Z,97.57
2019-02-26T02:12:04.766Z,98.27
2019-02-26T02:14:35.407Z,103.23
2019-02-26T02:19:51.823Z,102.20
2019-02-26T02:22:21.543Z,105.20
2019-02-26T02:24:53.398Z,110.00
2019-02-26T02:27:26.850Z,105.07
2019-02-26T02:29:55.403Z,109.93
2019-02-26T02:32:26.637Z,108.63
2019-02-26T02:35:00.558Z,109.33
2019-02-26T02:37:30.042Z,108.60
2019-02-26T02:39:58.898Z,100.57
2019-02-26T02:42:28.309Z,112.60
2019-02-26T02:44:57.851Z,106.33
2019-02-26T02:47:30.646Z,108.07
2019-02-26T02:49:59.006Z,104.80
2019-02-26T02:52:30.420Z,105.90
2019-02-26T02:54:59.690Z,105.63
2019-02-26T02:57:30.138Z,106.90
2019-02-26T03:00:02.675Z,112.10
2019-02-26T03:02:30.537Z,104.80
2019-02-26T03:04:59.299Z,108.63
2019-02-26T03:07:29.443Z,111.60
2019-02-26T03:10:00.473Z,103.87
2019-02-26T03:12:30.686Z,115.70
2019-02-26T03:15:02.112Z,110.00
2019-02-26T03:17:29.975Z,115.13
2019-02-26T03:20:01.639Z,110.27
2019-02-26T03:22:29.319Z,115.60
2019-02-26T03:24:59.603Z,109.67
2019-02-26T03:27:31.351Z,113.33
2019-02-26T03:30:01.825Z,109.97
2019-02-26T03:32:29.653Z,112.27
2019-02-26T03:35:02.044Z,104.73
2019-02-26T03:37:31.237Z,103.83
2019-02-26T03:40:00.824Z,108.90
2019-02-26T03:42:30.341Z,108.77
2019-02-26T03:45:03.192Z,113.00
2019-02-26T03:47:31.651Z,111.37
2019-02-26T03:50:01.141Z,111.30
2019-02-26T03:52:32.118Z,113.23
2019-02-26T03:55:03.487Z,106.70
2019-02-26T03:57:33.349Z,114.20
2019-02-26T04:00:05.714Z,108.70
2019-02-26T04:02:33.922Z,105.40
2019-02-26T04:05:06.005Z,108.80
2019-02-26T04:07:36.106Z,107.47
2019-02-26T04:10:05.941Z,109.93
2019-02-26T04:12:39.196Z,111.87
2019-02-26T04:15:07.987Z,114.10
2019-02-26T04:17:39.490Z,106.90
2019-02-26T04:20:09.392Z,112.80
2019-02-26T04:22:40.183Z,101.40
2019-02-26T04:25:49.501Z,110.97
2019-02-26T04:28:21.740Z,113.63
2019-02-26T04:31:22.833Z,113.83
2019-02-26T04:34:48.463Z,112.30
2019-02-26T04:38:12.803Z,107.37
2019-02-26T04:41:13.387Z,107.03
2019-02-26T04:44:28.825Z,109.60
2019-02-26T04:47:12.984Z,107.63
2019-02-26T04:49:43.180Z,114.30
2019-02-26T04:52:14.386Z,107.73
2019-02-26T04:54:44.258Z,110.60
2019-02-26T04:57:13.935Z,108.93
2019-02-26T04:59:44.045Z,113.43
2019-02-26T05:02:16.309Z,114.90
2019-02-26T05:04:45.792Z,110.07
2019-02-26T05:07:19.290Z,116.77
2019-02-26T05:09:50.021Z,115.37
2019-02-26T05:12:18.813Z,115.03
2019-02-26T05:14:48.324Z,110.37
2019-02-26T05:17:21.851Z,111.10
2019-02-26T05:19:51.803Z,112.13
2019-02-26T05:22:25.571Z,110.37
2019-02-26T05:24:53.761Z,109.70
2019-02-26T05:27:24.827Z,117.20
2019-02-26T05:29:54.757Z,110.50
2019-02-26T05:32:43.552Z,108.40
2019-02-26T05:35:17.347Z,101.07
2019-02-26T05:37:46.650Z,105.20
2019-02-26T05:40:18.947Z,97.67
2019-02-26T05:42:47.260Z,101.93
2019-02-26T05:45:16.818Z,105.77
2019-02-26T05:47:48.873Z,110.00
2019-02-26T05:50:18.453Z,102.80
2019-02-26T05:52:50.273Z,100.97
2019-02-26T05:55:20.601Z,102.67
2019-02-26T05:57:50.422Z,95.50
2019-02-26T06:00:22.684Z,105.53
2019-02-26T06:02:51.171Z,104.03
2019-02-26T06:05:23.396Z,104.87
2019-02-26T06:07:52.299Z,107.57
2019-02-26T06:10:24.310Z,100.07
2019-02-26T06:12:53.003Z,103.67
2019-02-26T06:15:23.111Z,98.43
2019-02-26T06:17:55.833Z,97.93
2019-02-26T06:20:28.087Z,95.93
2019-02-26T06:22:56.347Z,103.00
2019-02-26T06:25:27.670Z,97.37
2019-02-26T06:28:02.237Z,95.67
2019-02-26T06:30:32.338Z,88.77
2019-02-26T06:33:04.309Z,88.60
2019-02-26T06:35:36.614Z,88.90
2019-02-26T06:38:09.326Z,98.67
2019-02-26T06:40:39.280Z,94.30
2019-02-26T06:43:09.483Z,94.27
2019-02-26T06:45:41.287Z,92.50
2019-02-26T06:48:14.670Z,109.43
2019-02-26T06:50:43.659Z,106.40
2019-02-26T06:53:16.670Z,104.70
2019-02-26T06:55:46.524Z,112.00
2019-02-26T06:58:24.226Z,96.67
2019-02-26T07:00:55.422Z,97.17
2019-02-26T07:03:26.285Z,103.43
2019-02-26T07:05:57.135Z,93.53
2019-02-26T07:08:28.563Z,94.73
2019-02-26T07:10:57.907Z,90.93
2019-02-26T07:13:29.176Z,84.70
2019-02-26T07:16:00.311Z,83.70
2019-02-26T07:18:29.888Z,86.80
2019-02-26T07:21:00.296Z,91.00
2019-02-26T07:23:32.608Z,91.80
2019-02-26T07:26:01.163Z,92.93
2019-02-26T07:28:30.725Z,87.23
2019-02-26T07:31:02.189Z,87.10
2019-02-26T07:33:34.150Z,79.60
2019-02-26T07:36:04.156Z,77.50
2019-02-26T07:38:40.873Z,78.87
2019-02-26T07:41:06.689Z,84.60
2019-02-26T07:43:38.799Z,91.10
2019-02-26T07:46:07.114Z,80.70
2019-02-26T07:48:38.719Z,86.13
2019-02-26T07:51:11.056Z,77.07
2019-02-26T07:53:44.402Z,87.83
2019-02-26T07:56:11.635Z,91.37
2019-02-26T07:58:43.121Z,89.17
2019-02-26T08:01:12.632Z,85.30
2019-02-26T08:03:46.455Z,87.03
2019-02-26T08:06:16.659Z,82.10
2019-02-26T08:08:48.450Z,75.50
2019-02-26T08:11:17.309Z,81.40
2019-02-26T08:13:46.676Z,85.10
2019-02-26T08:16:20.630Z,80.83
2019-02-26T08:18:52.189Z,80.80
2019-02-26T08:21:45.485Z,74.20
2019-02-26T08:24:17.131Z,77.17
2019-02-26T08:26:47.544Z,75.40
2019-02-26T08:29:17.772Z,77.30
2019-02-26T08:31:47.475Z,81.23
2019-02-26T08:34:17.009Z,80.07
2019-02-26T08:36:46.793Z,75.67
2019-02-26T08:39:15.931Z,88.07
2019-02-26T08:42:01.369Z,68.33
2019-02-26T08:44:30.211Z,52.53
2019-02-26T08:46:58.942Z,52.13
2019-02-26T08:49:27.750Z,62.80
2019-02-26T08:52:24.075Z,58.53
2019-02-26T08:54:51.347Z,55.17
2019-02-26T08:57:20.813Z,58.37
2019-02-26T08:59:52.061Z,54.57
2019-02-26T09:02:23.128Z,53.70
2019-02-26T09:04:52.666Z,45.33
2019-02-26T09:07:24.448Z,57.03
2019-02-26T09:09:57.464Z,50.77
2019-02-26T09:12:27.243Z,56.23
2019-02-26T09:14:58.900Z,56.73
2019-02-26T09:17:30.458Z,61.70
2019-02-26T09:20:06.975Z,66.60
2019-02-26T09:22:30.960Z,52.80
2019-02-26T09:25:02.183Z,46.10
2019-02-26T09:27:32.101Z,50.93
2019-02-26T09:30:03.480Z,51.70
2019-02-26T09:32:37.317Z,52.30
2019-02-26T09:35:06.944Z,50.97
2019-02-26T09:37:36.357Z,50.23
2019-02-26T09:40:06.507Z,51.87
2019-02-26T09:42:39.071Z,29.23
2019-02-26T09:45:10.755Z,50.90
2019-02-26T09:47:42.037Z,52.73
2019-02-26T09:50:15.360Z,55.37
2019-02-26T09:52:47.598Z,48.30
2019-02-26T09:55:17.790Z,51.67
2019-02-26T09:57:49.207Z,40.83
2019-02-26T10:00:40.492Z,49.83
2019-02-26T10:03:12.725Z,47.93
2019-02-26T10:05:41.626Z,50.83
2019-02-26T10:08:11.174Z,47.20
2019-02-26T10:10:40.655Z,33.87
2019-02-26T10:13:11.209Z,50.33
2019-02-26T10:15:42.778Z,50.57
2019-02-26T10:18:11.938Z,48.37
2019-02-26T10:20:43.326Z,51.50
2019-02-26T10:23:12.395Z,43.47
2019-02-26T10:25:42.896Z,27.17
2019-02-26T10:28:14.202Z,42.00
2019-02-26T10:30:44.632Z,40.73
2019-02-26T10:33:18.250Z,39.00
2019-02-26T10:35:49.735Z,38.27
2019-02-26T10:38:18.456Z,37.13
2019-02-26T10:40:53.788Z,36.77
2019-02-26T10:43:20.442Z,35.17
2019-02-26T10:45:50.536Z,37.07
2019-02-26T10:48:22.834Z,23.87
2019-02-26T10:50:53.320Z,40.17
2019-02-26T10:53:34.497Z,61.80
2019-02-26T10:56:05.137Z,55.43
2019-02-26T10:58:34.743Z,34.47
2019-02-26T11:01:05.380Z,52.20
2019-02-26T11:03:37.940Z,56.73
2019-02-26T11:06:07.391Z,40.67
2019-02-26T11:08:37.656Z,38.20
2019-02-26T11:11:08.201Z,31.53
2019-02-26T11:13:40.730Z,36.33
2019-02-26T11:16:10.774Z,30.13
2019-02-26T11:18:42.552Z,30.43
2019-02-26T11:21:11.330Z,20.57
2019-02-26T11:23:41.988Z,24.83
2019-02-26T11:26:13.154Z,31.77
2019-02-26T11:28:45.472Z,29.10
2019-02-26T11:31:33.944Z,25.07
2019-02-26T11:34:06.656Z,32.70
2019-02-26T11:36:36.506Z,33.03
2019-02-26T11:39:09.250Z,28.13
2019-02-26T11:41:39.378Z,26.47
2019-02-26T11:44:12.498Z,27.70
2019-02-26T11:46:39.924Z,27.43
2019-02-26T11:49:11.876Z,30.03
2019-02-26T11:51:42.458Z,23.97
2019-02-26T11:54:15.047Z,34.27
2019-02-26T11:56:47.161Z,35.43
2019-02-26T11:59:16.932Z,29.67
2019-02-26T12:01:47.830Z,23.63
2019-02-26T12:04:17.335Z,33.27
2019-02-26T12:06:46.713Z,32.50
2019-02-26T12:09:17.777Z,31.97
2019-02-26T12:11:49.531Z,25.23
2019-02-26T12:14:21.538Z,34.93
2019-02-26T12:16:50.200Z,35.43
2019-02-26T12:19:19.593Z,36.53
2019-02-26T12:21:49.508Z,26.23
2019-02-26T12:24:20.402Z,38.63
2019-02-26T12:26:50.472Z,36.13
2019-02-26T12:29:23.584Z,38.13
2019-02-26T12:31:55.548Z,40.23
2019-02-26T12:34:24.272Z,41.73
2019-02-26T12:36:57.169Z,47.17
2019-02-26T12:39:25.755Z,26.17
2019-02-26T12:41:56.090Z,57.17
2019-02-26T12:44:25.626Z,56.60
2019-02-26T12:46:56.836Z,63.00
2019-02-26T12:49:29.407Z,63.03
2019-02-26T12:51:59.836Z,65.73
2019-02-26T12:54:33.220Z,42.20
2019-02-26T12:57:04.275Z,76.27
2019-02-26T12:59:33.107Z,75.33
2019-02-26T13:02:04.727Z,85.23
2019-02-26T13:04:33.705Z,86.83
2019-02-26T13:07:05.413Z,53.07
2019-02-26T13:09:34.248Z,87.70
2019-02-26T13:12:05.920Z,94.80
2019-02-26T13:14:36.623Z,102.20
2019-02-26T13:17:06.067Z,106.27
2019-02-26T13:19:36.973Z,48.87
2019-02-26T13:22:08.892Z,122.17
2019-02-26T13:24:37.784Z,120.57
2019-02-26T13:27:08.368Z,131.43
2019-02-26T13:29:42.508Z,134.47
2019-02-26T13:32:13.107Z,81.00
2019-02-26T13:34:40.109Z,136.67
2019-02-26T13:37:09.790Z,134.83
2019-02-26T13:39:41.538Z,140.17
2019-02-26T13:42:13.966Z,77.47
2019-02-26T13:44:41.646Z,146.43
2019-02-26T13:47:11.111Z,146.07
2019-02-26T13:49:40.587Z,152.33
2019-02-26T13:52:10.168Z,141.93
2019-02-26T13:54:40.725Z,97.43
2019-02-26T13:57:11.759Z,163.10
2019-02-26T13:59:41.541Z,158.90
2019-02-26T14:02:11.187Z,112.83
2019-02-26T14:04:41.870Z,127.87
2019-02-26T14:07:13.541Z,170.30
2019-02-26T14:09:42.905Z,171.40
2019-02-26T14:12:12.585Z,100.83
2019-02-26T14:14:42.060Z,164.60
2019-02-26T14:17:11.535Z,171.30
2019-02-26T14:19:40.972Z,182.00
2019-02-26T14:22:10.509Z,95.67
2019-02-26T14:24:40.268Z,118.20
2019-02-26T14:27:10.117Z,181.47
2019-02-26T14:29:39.592Z,177.47
2019-02-26T14:32:10.128Z,87.13
2019-02-26T14:34:39.639Z,183.47
2019-02-26T14:37:10.307Z,185.87
2019-02-26T14:39:39.763Z,176.70
2019-02-26T14:42:10.863Z,98.40
2019-02-26T14:44:40.358Z,187.03
2019-02-26T14:47:09.936Z,184.93
2019-02-26T14:49:39.490Z,191.50
2019-02-26T14:52:10.111Z,114.77
2019-02-26T14:54:39.534Z,184.07
2019-02-26T14:57:09.009Z,188.63
2019-02-26T14:59:39.694Z,190.73
2019-02-26T15:02:09.663Z,143.20
2019-02-26T15:04:40.805Z,202.50
2019-02-26T15:07:10.301Z,202.80
2019-02-26T15:09:39.838Z,201.53
2019-02-26T15:12:11.159Z,202.60
2019-02-26T15:14:41.652Z,187.17
2019-02-26T15:17:12.341Z,210.23
2019-02-26T15:19:49.670Z,205.17
2019-02-26T15:22:14.931Z,205.43
2019-02-26T15:24:44.412Z,181.73
2019-02-26T15:27:13.915Z,210.57
2019-02-26T15:29:43.302Z,220.43
2019-02-26T15:32:12.743Z,215.63
2019-02-26T15:34:42.215Z,131.67
2019-02-26T15:37:30.867Z,104.73
2019-02-26T15:40:01.712Z,212.33
2019-02-26T15:42:31.182Z,220.23
2019-02-26T15:45:00.841Z,215.10
2019-02-26T15:47:32.578Z,210.10
2019-02-26T15:50:02.450Z,215.07
2019-02-26T15:52:31.985Z,216.07
2019-02-26T15:55:01.707Z,200.33
2019-02-26T15:57:31.745Z,202.20
2019-02-26T16:00:06.346Z,197.30
2019-02-26T16:02:36.757Z,194.60
2019-02-26T16:05:06.442Z,183.83
2019-02-26T16:07:38.186Z,185.13
2019-02-26T16:10:08.825Z,177.70
2019-02-26T16:12:39.681Z,171.03
2019-02-26T16:15:11.841Z,143.60
2019-02-26T16:17:41.288Z,163.50
2019-02-26T16:20:13.073Z,173.37
2019-02-26T16:22:42.786Z,160.43
2019-02-26T16:25:12.373Z,163.83
2019-02-26T16:27:42.016Z,150.27
2019-02-26T16:30:17.399Z,162.27
2019-02-26T16:32:48.918Z,171.67
2019-02-26T16:35:18.796Z,177.67
2019-02-26T16:37:50.180Z,170.67
2019-02-26T16:40:20.076Z,175.47
2019-02-26T16:42:50.854Z,172.57
2019-02-26T16:45:22.155Z,176.67
2019-02-26T16:47:52.678Z,166.00
2019-02-26T16:50:22.792Z,172.73
2019-02-26T16:52:52.321Z,181.10
2019-02-26T16:55:22.208Z,199.97
2019-02-26T16:57:51.652Z,194.60
2019-02-26T17:00:23.988Z,202.53
2019-02-26T17:02:53.387Z,200.17
2019-02-26T17:05:23.517Z,204.57
2019-02-26T17:07:53.246Z,209.27
2019-02-26T17:10:22.742Z,198.33
2019-02-26T17:12:55.063Z,209.77
2019-02-26T17:15:28.634Z,206.50
2019-02-26T17:17:58.130Z,208.20
2019-02-26T17:20:27.723Z,205.00
2019-02-26T17:22:57.222Z,207.80
2019-02-26T17:25:28.492Z,206.77
2019-02-26T17:28:00.072Z,214.23
2019-02-26T17:30:31.489Z,216.37
2019-02-26T17:33:00.925Z,222.00
2019-02-26T17:35:30.528Z,217.00
2019-02-26T17:38:00.126Z,206.20
2019-02-26T17:40:33.923Z,196.13
2019-02-26T17:43:03.970Z,203.80
2019-02-26T17:45:37.347Z,202.10
2019-02-26T17:48:06.216Z,194.80
2019-02-26T17:50:36.613Z,204.77
2019-02-26T17:53:06.335Z,195.33
2019-02-26T17:55:36.170Z,199.13
2019-02-26T17:58:09.792Z,205.30
2019-02-26T18:00:39.323Z,203.40
2019-02-26T18:03:10.038Z,198.67
2019-02-26T18:05:50.579Z,199.97
2019-02-26T18:08:11.645Z,199.83
2019-02-26T18:10:41.352Z,199.93
2019-02-26T18:13:10.930Z,213.90
2019-02-26T18:15:40.749Z,207.77
2019-02-26T18:18:11.542Z,210.50
2019-02-26T18:20:41.440Z,209.00
2019-02-26T18:23:11.990Z,201.70
2019-02-26T18:25:42.391Z,208.60
2019-02-26T18:28:12.180Z,200.57
2019-02-26T18:30:41.719Z,197.57
2019-02-26T18:33:11.477Z,210.37
2019-02-26T18:35:43.783Z,195.93
2019-02-26T18:38:13.624Z,207.13
2019-02-26T18:40:43.813Z,197.43
2019-02-26T18:43:14.987Z,194.27
2019-02-26T18:45:44.810Z,204.80
2019-02-26T18:48:15.701Z,208.20
2019-02-26T18:50:45.635Z,200.13
2019-02-26T18:53:16.690Z,202.80
2019-02-26T18:55:46.612Z,209.13
2019-02-26T18:58:17.056Z,217.03
2019-02-26T19:00:46.709Z,225.57
2019-02-26T19:03:16.798Z,227.37
2019-02-26T19:05:47.128Z,231.30
2019-02-26T19:08:18.934Z,233.47
2019-02-26T19:10:50.865Z,234.97
2019-02-26T19:13:21.113Z,221.20
2019-02-26T19:15:50.746Z,223.87
2019-02-26T19:18:20.833Z,218.37
2019-02-26T19:20:50.881Z,208.40
2019-02-26T19:23:21.119Z,203.70
2019-02-26T19:25:51.363Z,207.00
2019-02-26T19:28:21.027Z,207.03
2019-02-26T19:30:51.074Z,204.73
2019-02-26T19:33:21.689Z,231.17
2019-02-26T19:35:53.892Z,217.83
2019-02-26T19:38:27.274Z,226.43
2019-02-26T19:40:56.752Z,219.67
2019-02-26T19:43:28.834Z,209.87
2019-02-26T19:45:59.241Z,211.63
2019-02-26T19:48:33.883Z,216.63
2019-02-26T19:51:03.933Z,213.43
2019-02-26T19:53:35.180Z,209.10
2019-02-26T19:56:05.505Z,208.80
2019-02-26T19:58:35.801Z,203.03
2019-02-26T20:01:05.803Z,200.70
2019-02-26T20:03:39.852Z,190.70
2019-02-26T20:06:08.071Z,196.70
2019-02-26T20:08:38.474Z,196.37
2019-02-26T20:11:08.607Z,194.40
2019-02-26T20:13:42.057Z,191.10
2019-02-26T20:16:09.958Z,207.97
2019-02-26T20:18:40.084Z,203.10
2019-02-26T20:21:09.908Z,197.40
2019-02-26T20:23:41.863Z,213.80
2019-02-26T20:26:16.162Z,196.27
2019-02-26T20:28:43.280Z,195.73
2019-02-26T20:31:13.333Z,192.27
2019-02-26T20:33:43.425Z,191.77
2019-02-26T20:36:17.628Z,191.77
2019-02-26T20:38:45.074Z,197.97
2019-02-26T20:41:14.934Z,190.03
2019-02-26T20:43:44.671Z,189.00
2019-02-26T20:46:14.213Z,200.60
2019-02-26T20:48:44.092Z,204.37
2019-02-26T20:51:14.075Z,191.50
2019-02-26T20:53:43.747Z,202.03
2019-02-26T20:56:13.563Z,212.60
2019-02-26T20:58:44.922Z,208.97
2019-02-26T21:01:14.618Z,195.27
2019-02-26T21:03:46.914Z,195.23
2019-02-26T21:06:18.058Z,191.20
2019-02-26T21:08:49.711Z,197.20
2019-02-26T21:11:23.233Z,195.97
2019-02-26T21:13:52.855Z,188.50
2019-02-26T21:16:24.253Z,198.17
2019-02-26T21:18:55.910Z,199.70
2019-02-26T21:21:27.265Z,197.53
2019-02-26T21:24:00.466Z,189.53
2019-02-26T21:26:29.629Z,182.17
2019-02-26T21:28:59.618Z,198.57
2019-02-26T21:31:28.990Z,196.63
2019-02-26T21:33:58.534Z,196.30
2019-02-26T21:36:28.494Z,205.17
2019-02-26T21:38:57.965Z,191.20
2019-02-26T21:41:28.563Z,189.80
2019-02-26T21:43:58.054Z,195.07
2019-02-26T21:46:29.293Z,199.37
2019-02-26T21:48:58.750Z,187.27
2019-02-26T21:51:33.720Z,194.93
2019-02-26T21:54:00.920Z,202.33
2019-02-26T21:56:30.495Z,191.27
2019-02-26T21:59:02.239Z,188.23
2019-02-26T22:01:31.623Z,195.17
2019-02-26T22:04:03.794Z,191.60
2019-02-26T22:06:34.590Z,191.77
2019-02-26T22:09:04.405Z,192.57
2019-02-26T22:11:34.133Z,187.63
2019-02-26T22:14:03.604Z,197.40
2019-02-26T22:16:33.023Z,186.47
2019-02-26T22:19:04.722Z,197.30
2019-02-26T22:21:33.634Z,189.73
2019-02-26T22:24:04.631Z,186.63
2019-02-26T22:26:34.207Z,198.97
2019-02-26T22:29:04.962Z,189.00
2019-02-26T22:31:34.640Z,197.80
2019-02-26T22:34:04.116Z,192.17
2019-02-26T22:36:34.746Z,198.00
2019-02-26T22:39:05.566Z,186.03
2019-02-26T22:41:36.203Z,194.30
2019-02-26T22:44:07.078Z,179.87
2019-02-26T22:46:37.764Z,187.93
2019-02-26T22:49:08.453Z,175.63
2019-02-26T22:51:39.059Z,172.50
2019-02-26T22:54:10.434Z,169.87
2019-02-26T22:56:40.082Z,162.80
2019-02-26T22:59:12.818Z,158.80
2019-02-26T23:01:46.834Z,149.47
2019-02-26T23:04:35.512Z,160.43
2019-02-26T23:07:06.079Z,149.27
2019-02-26T23:09:37.488Z,144.57
2019-02-26T23:12:08.138Z,149.90
2019-02-26T23:14:39.299Z,153.03
2019-02-26T23:17:13.360Z,155.37
2019-02-26T23:19:42.775Z,165.90
2019-02-26T23:22:13.537Z,164.43
2019-02-26T23:24:44.477Z,155.53
2019-02-26T23:27:16.729Z,155.20
2019-02-26T23:29:46.183Z,141.73
2019-02-26T23:32:16.775Z,148.27
2019-02-26T23:35:03.396Z,147.67
2019-02-26T23:37:34.713Z,152.50
2019-02-26T23:40:27.411Z,144.50
2019-02-26T23:42:58.313Z,153.83
2019-02-26T23:45:27.791Z,158.63
2019-02-26T23:47:57.254Z,163.13
2019-02-26T23:50:27.793Z,145.10
2019-02-26T23:53:00.927Z,129.60
2019-02-26T23:55:32.183Z,139.17
2019-02-26T23:58:01.697Z,135.70
